Airfield :
LOGIN :

Register | Disclaimer

   EN    FR    IT 

 










Legend :    VFR   Marginal VFR   IFR   Intensive IFR   Very Intensive IFR
Visi :
Ceiling :
>= 8 km
>= 3000ft
5 to 8 km
1000 to 3000 ft
1500m to 5 km
500 to 1000 ft
800 to 1500m
200 to 500 ft
< 800m
< 200 ft
Symbols :   Thunderstorms  Fog  Heavy snow  Heavy precipitations  Wind > 20 kt
SIGMETs :     Misc.  Thunderstorms  Icing  Turbulence  Mountain Waves  Volcanic Ashes






- Airport Elevation : 220 ft
- IATA code : CWL


EGFF - Cardiff Rhoose

CURRENT METAR :
  • 240520Z AUTO 24017G27KT 210V270 9999 -RA FEW042/// BKN049/// //////CB 11/08 Q0994

EXPIRED METARs :
  • 240450Z AUTO 24015KT 9999 -RA FEW023/// SCT046/// //////CB 11/07 Q0993
  • 240420Z AUTO 23013KT 9999 SCT023/// //////CB 12/09 Q0994
  • 240350Z AUTO 22014KT 190V250 9999 BKN020/// OVC028/// //////CB 12/09 Q0994
  • 240320Z AUTO 21015KT 9999 BKN026/// BKN038/// BKN048/// //////CB 11/09 Q0994 RERA
  • 240250Z AUTO 20014G24KT 9999 -RA BKN023/// BKN044/// //////TCU 11/09 Q0995

TAF TAF EGFF
Valid from the 24 at 06:00 until the 25 at 06:00 UTC


240455Z 2406/2506 22012KT 9999 SCT025
TEMPO 2406/2420 22015G25KT 5000 RA SHRA
PROB40
TEMPO 2406/2412 22022G35KT 2000 +SHRA BKN010 BKN015CB
PROB40
TEMPO 2412/2419 2000 +SHRA SHGS BKN010 BKN015CB
BECMG 2417/2420 02010KT
BECMG 2421/2424 32008KT
ATIS : +44 1446 729 319



MET'MAP, your aeronautical weather chart ! - Copyright ORBIFLY December 2007 - Disclaimer

ORBIFLY MET'MAP TEAM :

Programming & Development : Alexandra Zaïnal
Concept & original design : Baudouin d'Aumeries
Assistance for programming : Marc-Olivier Méhu
Technical & hardware support : Manuel Goepfert

Contact : metmap@orbifly.com




SOURCES & CREDITS :

   NOAA